createdAt,value
2023-03-19T00:00:52.990Z,50.834831
2023-03-19T00:01:53.067Z,50.834824
2023-03-19T00:02:53.280Z,50.834816
2023-03-19T00:03:53.112Z,50.834816
2023-03-19T00:04:54.176Z,50.834812
2023-03-19T00:05:52.987Z,50.834812
2023-03-19T00:06:52.966Z,50.834805
2023-03-19T00:07:52.956Z,50.834824
2023-03-19T00:08:52.928Z,50.834797
2023-03-19T00:09:52.904Z,50.834816
2023-03-19T00:10:52.923Z,50.834824
2023-03-19T00:11:52.963Z,50.834808
2023-03-19T00:12:52.944Z,50.834816
2023-03-19T00:13:53.676Z,50.834808
2023-03-19T00:14:52.890Z,50.834805
2023-03-19T00:15:52.919Z,50.834805
2023-03-19T00:16:52.959Z,50.834820
2023-03-19T00:17:52.894Z,50.834827
2023-03-19T00:18:52.853Z,50.834805
2023-03-19T00:19:52.861Z,50.834805
2023-03-19T00:20:52.973Z,50.834797
2023-03-19T00:21:52.835Z,50.834812
2023-03-19T00:22:52.839Z,50.834805
2023-03-19T00:23:52.840Z,50.834820
2023-03-19T00:24:52.817Z,50.834812
2023-03-19T00:25:52.781Z,50.834820
2023-03-19T00:26:52.825Z,50.834816
2023-03-19T00:27:52.852Z,50.834831
2023-03-19T00:28:52.859Z,50.834846
2023-03-19T00:29:52.776Z,50.834846
2023-03-19T00:30:52.813Z,50.834824
2023-03-19T00:31:52.796Z,50.834805
2023-03-19T00:32:52.810Z,50.834820
2023-03-19T00:33:52.730Z,50.834820
2023-03-19T00:34:52.757Z,50.834793
2023-03-19T00:35:52.733Z,50.834820
2023-03-19T00:36:52.765Z,50.834820
2023-03-19T00:37:52.752Z,50.834808
2023-03-19T00:38:52.742Z,50.834824
2023-03-19T00:39:52.671Z,50.834827
2023-03-19T00:40:52.704Z,50.834820
2023-03-19T00:41:52.718Z,50.834827
2023-03-19T00:42:52.667Z,50.834831
2023-03-19T00:43:52.673Z,50.834816
2023-03-19T00:44:53.694Z,50.834816
2023-03-19T00:45:52.714Z,50.834816
2023-03-19T00:46:52.675Z,50.834831
2023-03-19T00:47:52.643Z,50.834820
2023-03-19T00:48:52.598Z,50.834831
2023-03-19T00:49:52.612Z,50.834824
2023-03-19T00:50:52.621Z,50.834843
2023-03-19T00:51:52.607Z,50.834843
2023-03-19T00:52:52.644Z,50.834827
2023-03-19T00:53:52.583Z,50.834835
2023-03-19T00:54:52.581Z,50.834839
2023-03-19T00:55:52.644Z,50.834835
2023-03-19T00:56:52.551Z,50.834820
2023-03-19T00:57:52.549Z,50.834808
2023-03-19T00:58:52.575Z,50.834827
2023-03-19T00:59:52.519Z,50.834824
2023-03-19T01:00:52.509Z,50.834835
2023-03-19T01:01:52.490Z,50.834846
2023-03-19T01:02:52.765Z,50.834827
2023-03-19T01:03:52.501Z,50.834835
2023-03-19T01:04:52.538Z,50.834839
2023-03-19T01:05:52.487Z,50.834850
2023-03-19T01:06:52.492Z,50.834824
2023-03-19T01:07:52.450Z,50.834831
2023-03-19T01:08:52.500Z,50.834827
2023-03-19T01:09:52.494Z,50.834839
2023-03-19T01:10:52.554Z,50.834835
2023-03-19T01:11:52.457Z,50.834846
2023-03-19T01:12:52.428Z,50.834797
2023-03-19T01:13:52.420Z,50.834827
2023-03-19T01:14:52.418Z,50.834824
2023-03-19T01:15:52.435Z,50.834785
2023-03-19T01:16:52.399Z,50.834793
2023-03-19T01:17:52.386Z,50.834812
2023-03-19T01:18:52.364Z,50.834827
2023-03-19T01:19:52.375Z,50.834816
2023-03-19T01:20:52.379Z,50.834816
2023-03-19T01:21:52.374Z,50.834835
2023-03-19T01:22:52.356Z,50.834843
2023-03-19T01:23:52.390Z,50.834805
2023-03-19T01:24:52.868Z,50.834816
2023-03-19T01:25:52.304Z,50.834793
2023-03-19T01:26:53.350Z,50.834789
2023-03-19T01:27:52.307Z,50.834801
2023-03-19T01:28:52.295Z,50.834805
2023-03-19T01:29:52.280Z,50.834816
2023-03-19T01:30:52.300Z,50.834782
2023-03-19T01:31:52.315Z,50.834778
2023-03-19T01:32:52.369Z,50.834801
2023-03-19T01:33:52.236Z,50.834801
2023-03-19T01:34:52.250Z,50.834774
2023-03-19T01:35:52.245Z,50.834805
2023-03-19T01:36:52.258Z,50.834812
2023-03-19T01:37:52.370Z,50.834805
2023-03-19T01:38:52.265Z,50.834770
2023-03-19T01:39:52.220Z,50.834774
2023-03-19T01:40:52.239Z,50.834801
2023-03-19T01:41:52.203Z,50.834805
2023-03-19T01:42:52.192Z,50.834808
2023-03-19T01:43:52.202Z,50.834789
2023-03-19T01:44:52.186Z,50.834801
2023-03-19T01:45:53.056Z,50.834820
2023-03-19T01:46:52.210Z,50.834797
2023-03-19T01:47:52.146Z,50.834789
2023-03-19T01:48:52.227Z,50.834782
2023-03-19T01:49:52.166Z,50.834774
2023-03-19T01:50:52.139Z,50.834782
2023-03-19T01:51:52.189Z,50.834778
2023-03-19T01:52:52.121Z,50.834755
2023-03-19T01:53:52.179Z,50.834770
2023-03-19T01:54:52.170Z,50.834778
2023-03-19T01:55:52.074Z,50.834797
2023-03-19T01:56:52.082Z,50.834793
2023-03-19T01:57:52.074Z,50.834785
2023-03-19T01:58:52.207Z,50.834797
2023-03-19T01:59:52.063Z,50.834778
2023-03-19T02:00:52.069Z,50.834797
2023-03-19T02:01:52.154Z,50.834789
2023-03-19T02:02:52.051Z,50.834782
2023-03-19T02:03:52.065Z,50.834778
2023-03-19T02:04:52.060Z,50.834782
2023-03-19T02:05:52.016Z,50.834785
2023-03-19T02:06:52.020Z,50.834778
2023-03-19T02:07:52.011Z,50.834770
2023-03-19T02:08:52.001Z,50.834770
2023-03-19T02:09:52.022Z,50.834778
2023-03-19T02:10:51.985Z,50.834785
2023-03-19T02:11:51.989Z,50.834774
2023-03-19T02:12:52.034Z,50.834797
2023-03-19T02:13:51.959Z,50.834805
2023-03-19T02:14:51.926Z,50.834827
2023-03-19T02:15:52.000Z,50.834789
2023-03-19T02:16:51.951Z,50.834824
2023-03-19T02:17:51.922Z,50.834816
2023-03-19T02:18:51.890Z,50.834801
2023-03-19T02:19:51.925Z,50.834789
2023-03-19T02:20:51.890Z,50.834778
2023-03-19T02:21:52.011Z,50.834797
2023-03-19T02:22:51.958Z,50.834801
2023-03-19T02:23:51.857Z,50.834805
2023-03-19T02:24:51.879Z,50.834808
2023-03-19T02:25:51.836Z,50.834782
2023-03-19T02:26:51.842Z,50.834805
2023-03-19T02:27:52.022Z,50.834816
2023-03-19T02:28:51.819Z,50.834827
2023-03-19T02:29:51.928Z,50.834835
2023-03-19T02:30:51.882Z,50.834827
2023-03-19T02:31:51.837Z,50.834816
2023-03-19T02:32:51.977Z,50.834766
2023-03-19T02:33:51.793Z,50.834778
2023-03-19T02:34:51.808Z,50.834793
2023-03-19T02:35:51.887Z,50.834778
2023-03-19T02:36:51.801Z,50.834820
2023-03-19T02:37:51.781Z,50.834816
2023-03-19T02:38:51.789Z,50.834766
2023-03-19T02:39:51.729Z,50.834763
2023-03-19T02:40:51.741Z,50.834782
2023-03-19T02:41:51.735Z,50.834778
2023-03-19T02:42:51.722Z,50.834801
2023-03-19T02:43:51.725Z,50.834808
2023-03-19T02:44:51.702Z,50.834789
2023-03-19T02:45:51.688Z,50.834816
2023-03-19T02:46:51.760Z,50.834820
2023-03-19T02:47:51.715Z,50.834816
2023-03-19T02:48:51.680Z,50.834812
2023-03-19T02:49:51.677Z,50.834820
2023-03-19T02:50:51.677Z,50.834808
2023-03-19T02:51:51.663Z,50.834812
2023-03-19T02:52:51.661Z,50.834854
2023-03-19T02:53:51.689Z,50.834793
2023-03-19T02:54:51.624Z,50.834820
2023-03-19T02:55:51.610Z,50.834816
2023-03-19T02:56:51.655Z,50.834812
2023-03-19T02:57:51.592Z,50.834801
2023-03-19T02:58:51.672Z,50.834820
2023-03-19T02:59:51.590Z,50.834785
2023-03-19T03:00:51.645Z,50.834812
2023-03-19T03:01:51.690Z,50.834820
2023-03-19T03:02:51.547Z,50.834839
2023-03-19T03:03:51.558Z,50.834812
2023-03-19T03:04:51.555Z,50.834831
2023-03-19T03:05:51.593Z,50.834793
2023-03-19T03:06:51.570Z,50.834812
2023-03-19T03:07:51.518Z,50.834805
2023-03-19T03:08:51.531Z,50.834782
2023-03-19T03:09:51.518Z,50.834793
2023-03-19T03:10:51.513Z,50.834763
2023-03-19T03:11:51.499Z,50.834801
2023-03-19T03:12:51.553Z,50.834805
2023-03-19T03:13:51.484Z,50.834820
2023-03-19T03:14:51.477Z,50.834808
2023-03-19T03:15:51.513Z,50.834793
2023-03-19T03:16:51.460Z,50.834820
2023-03-19T03:17:51.468Z,50.834827
2023-03-19T03:18:51.454Z,50.834808
2023-03-19T03:19:51.441Z,50.834805
2023-03-19T03:20:51.445Z,50.834793
2023-03-19T03:21:51.452Z,50.834812
2023-03-19T03:22:51.416Z,50.834835
2023-03-19T03:23:51.388Z,50.834816
2023-03-19T03:24:51.399Z,50.834824
2023-03-19T03:25:51.397Z,50.834824
2023-03-19T03:26:51.414Z,50.834850
2023-03-19T03:27:51.367Z,50.834862
2023-03-19T03:28:51.369Z,50.834846
2023-03-19T03:29:51.359Z,50.834831
2023-03-19T03:30:51.379Z,50.834831
2023-03-19T03:31:51.407Z,50.834831
2023-03-19T03:32:51.368Z,50.834816
2023-03-19T03:33:51.332Z,50.834808
2023-03-19T03:34:51.342Z,50.834820
2023-03-19T03:35:51.306Z,50.834812
2023-03-19T03:36:52.341Z,50.834816
2023-03-19T03:37:51.314Z,50.834824
2023-03-19T03:38:51.317Z,50.834812
2023-03-19T03:39:51.272Z,50.834816
2023-03-19T03:40:51.291Z,50.834835
2023-03-19T03:41:51.291Z,50.834816
2023-03-19T03:42:51.285Z,50.834812
2023-03-19T03:43:51.256Z,50.834816
2023-03-19T03:44:51.299Z,50.834816
2023-03-19T03:45:51.298Z,50.834824
2023-03-19T03:46:51.241Z,50.834839
2023-03-19T04:06:47.844Z,50.834854
2023-03-19T04:07:47.874Z,50.834827
2023-03-19T04:08:47.847Z,50.834801
2023-03-19T04:09:47.822Z,50.834881
2023-03-19T04:10:47.835Z,50.834892
2023-03-19T04:11:49.785Z,50.834873
2023-03-19T04:12:47.828Z,50.834869
2023-03-19T04:13:47.789Z,50.834885
2023-03-19T04:14:47.787Z,50.834934
2023-03-19T04:15:47.780Z,50.834892
2023-03-19T04:16:47.817Z,50.834900
2023-03-19T04:17:47.772Z,50.834854
2023-03-19T04:18:47.766Z,50.834862
2023-03-19T04:19:47.795Z,50.834839
2023-03-19T04:20:47.736Z,50.834835
2023-03-19T04:21:47.747Z,50.834820
2023-03-19T04:22:47.712Z,50.834835
2023-03-19T04:23:47.716Z,50.834843
2023-03-19T04:24:47.701Z,50.834812
2023-03-19T04:25:47.714Z,50.834843
2023-03-19T04:26:47.691Z,50.834831
2023-03-19T04:27:47.786Z,50.834846
2023-03-19T04:28:47.657Z,50.834850
2023-03-19T04:29:47.654Z,50.834850
2023-03-19T04:30:47.696Z,50.834846
2023-03-19T04:31:47.632Z,50.834827
2023-03-19T04:32:47.765Z,50.834846
2023-03-19T04:33:47.652Z,50.834846
2023-03-19T04:34:47.616Z,50.834827
2023-03-19T04:35:47.660Z,50.834827
2023-03-19T04:36:48.618Z,50.834858
2023-03-19T04:37:47.625Z,50.834877
2023-03-19T04:38:47.581Z,50.834843
2023-03-19T04:39:47.577Z,50.834820
2023-03-19T04:40:47.566Z,50.834812
2023-03-19T04:41:47.652Z,50.834827
2023-03-19T04:42:47.570Z,50.834866
2023-03-19T04:43:47.551Z,50.834873
2023-03-19T04:44:48.610Z,50.834839
2023-03-19T04:45:47.586Z,50.834862
2023-03-19T04:46:47.587Z,50.834881
2023-03-19T04:47:47.530Z,50.834896
2023-03-19T04:48:47.527Z,50.834866
2023-03-19T04:49:47.519Z,50.834839
2023-03-19T04:50:47.538Z,50.834858
2023-03-19T04:51:47.539Z,50.834866
2023-03-19T04:52:47.489Z,50.834850
2023-03-19T04:53:47.544Z,50.834850
2023-03-19T04:54:47.510Z,50.834824
2023-03-19T04:55:47.456Z,50.834839
2023-03-19T04:56:47.439Z,50.834820
2023-03-19T04:57:47.470Z,50.834839
2023-03-19T04:58:47.450Z,50.834858
2023-03-19T04:59:47.476Z,50.834839
2023-03-19T05:00:47.438Z,50.834831
2023-03-19T05:01:47.486Z,50.834816
2023-03-19T05:02:47.412Z,50.834820
2023-03-19T05:03:47.467Z,50.834839
2023-03-19T05:04:47.428Z,50.834824
2023-03-19T05:05:47.409Z,50.834839
2023-03-19T05:06:47.383Z,50.834850
2023-03-19T05:07:47.379Z,50.834831
2023-03-19T05:08:47.381Z,50.834843
2023-03-19T05:09:47.359Z,50.834835
2023-03-19T05:10:47.415Z,50.834846
2023-03-19T05:11:47.365Z,50.834869
2023-03-19T05:12:47.314Z,50.834812
2023-03-19T05:13:47.310Z,50.834820
2023-03-19T05:14:47.331Z,50.834831
2023-03-19T05:15:47.364Z,50.834846
2023-03-19T05:16:47.305Z,50.834850
2023-03-19T05:17:47.284Z,50.834850
2023-03-19T05:18:47.295Z,50.834858
2023-03-19T05:19:47.269Z,50.834846
2023-03-19T05:20:47.282Z,50.834831
2023-03-19T05:21:47.259Z,50.834816
2023-03-19T05:22:47.933Z,50.834846
2023-03-19T05:23:47.283Z,50.834808
2023-03-19T05:24:47.266Z,50.834839
2023-03-19T05:25:47.230Z,50.834827
2023-03-19T05:26:47.237Z,50.834827
2023-03-19T05:27:47.262Z,50.834850
2023-03-19T05:28:47.212Z,50.834831
2023-03-19T05:29:47.189Z,50.834816
2023-03-19T05:30:47.285Z,50.834831
2023-03-19T05:31:47.171Z,50.834827
2023-03-19T05:32:47.256Z,50.834835
2023-03-19T05:33:47.151Z,50.834831
2023-03-19T05:34:47.148Z,50.834785
2023-03-19T05:35:47.199Z,50.834797
2023-03-19T05:36:47.158Z,50.834827
2023-03-19T05:37:47.158Z,50.834827
2023-03-19T05:38:47.119Z,50.834858
2023-03-19T05:39:47.096Z,50.834812
2023-03-19T05:40:47.088Z,50.834789
2023-03-19T05:41:47.097Z,50.834805
2023-03-19T05:42:47.149Z,50.834812
2023-03-19T05:43:47.082Z,50.834824
2023-03-19T05:44:47.066Z,50.834839
2023-03-19T05:45:47.071Z,50.834827
2023-03-19T05:46:47.127Z,50.834831
2023-03-19T05:47:47.092Z,50.834816
2023-03-19T05:48:47.097Z,50.834812
2023-03-19T05:49:47.040Z,50.834797
2023-03-19T05:50:47.042Z,50.834789
2023-03-19T05:51:47.044Z,50.834797
2023-03-19T05:52:47.032Z,50.834820
2023-03-19T05:53:47.032Z,50.834805
2023-03-19T05:54:46.987Z,50.834808
2023-03-19T05:55:47.012Z,50.834824
2023-03-19T05:56:47.000Z,50.834808
2023-03-19T05:57:46.982Z,50.834770
2023-03-19T05:58:46.977Z,50.834759
2023-03-19T05:59:47.962Z,50.834766
2023-03-19T06:00:46.989Z,50.834789
2023-03-19T06:01:46.989Z,50.834759
2023-03-19T06:02:47.040Z,50.834778
2023-03-19T06:03:46.973Z,50.834789
2023-03-19T06:04:46.910Z,50.834778
2023-03-19T06:05:47.015Z,50.834816
2023-03-19T06:06:46.920Z,50.834801
2023-03-19T06:07:46.927Z,50.834816
2023-03-19T06:08:46.880Z,50.834789
2023-03-19T06:09:46.878Z,50.834770
2023-03-19T06:10:46.893Z,50.834759
2023-03-19T06:11:46.856Z,50.834797
2023-03-19T06:12:46.894Z,50.834789
2023-03-19T06:13:46.847Z,50.834797
2023-03-19T06:14:46.836Z,50.834785
2023-03-19T06:15:46.852Z,50.834801
2023-03-19T06:16:46.825Z,50.834797
2023-03-19T06:17:46.906Z,50.834759
2023-03-19T06:18:46.860Z,50.834797
2023-03-19T06:19:46.809Z,50.834812
2023-03-19T06:20:46.833Z,50.834816
2023-03-19T06:21:46.819Z,50.834808
2023-03-19T06:22:46.906Z,50.834816
2023-03-19T06:23:46.865Z,50.834812
2023-03-19T06:24:46.776Z,50.834805
2023-03-19T06:25:46.802Z,50.834808
2023-03-19T06:26:46.757Z,50.834805
2023-03-19T06:27:46.763Z,50.834808
2023-03-19T06:28:46.733Z,50.834824
2023-03-19T06:29:46.733Z,50.834816
2023-03-19T06:30:46.754Z,50.834835
2023-03-19T06:31:46.798Z,50.834812
2023-03-19T06:32:46.764Z,50.834816
2023-03-19T06:33:46.713Z,50.834789
2023-03-19T06:34:46.745Z,50.834797
2023-03-19T06:35:46.707Z,50.834812
2023-03-19T06:36:46.693Z,50.834789
2023-03-19T06:37:46.666Z,50.834820
2023-03-19T06:38:46.666Z,50.834816
2023-03-19T06:39:46.719Z,50.834805
2023-03-19T06:40:46.755Z,50.834820
2023-03-19T06:41:46.664Z,50.834805
2023-03-19T06:42:46.655Z,50.834805
2023-03-19T06:43:46.636Z,50.834816
2023-03-19T06:44:46.702Z,50.834808
2023-03-19T06:45:46.680Z,50.834797
2023-03-19T06:46:46.603Z,50.834831
2023-03-19T06:47:46.605Z,50.834805
2023-03-19T06:48:46.621Z,50.834801
2023-03-19T06:49:46.573Z,50.834805
2023-03-19T06:50:46.597Z,50.834789
2023-03-19T06:51:46.585Z,50.834805
2023-03-19T06:52:46.621Z,50.834816
2023-03-19T06:53:46.607Z,50.834801
2023-03-19T06:54:46.573Z,50.834785
2023-03-19T06:55:46.579Z,50.834785
2023-03-19T06:56:46.549Z,50.834805
2023-03-19T06:57:46.507Z,50.834808
2023-03-19T06:58:46.578Z,50.834808
2023-03-19T06:59:46.521Z,50.834778
2023-03-19T07:00:46.640Z,50.834789
2023-03-19T07:01:46.498Z,50.834770
2023-03-19T07:02:46.478Z,50.834763
2023-03-19T07:03:46.514Z,50.834778
2023-03-19T07:04:46.443Z,50.834789
2023-03-19T07:05:46.453Z,50.834789
2023-03-19T07:06:46.488Z,50.834782
2023-03-19T07:07:46.474Z,50.834770
2023-03-19T07:08:46.515Z,50.834778
2023-03-19T07:09:46.420Z,50.834759
2023-03-19T07:10:46.442Z,50.834766
2023-03-19T07:11:46.406Z,50.834770
2023-03-19T07:12:46.463Z,50.834774
2023-03-19T07:13:46.411Z,50.834778
2023-03-19T07:14:46.409Z,50.834774
2023-03-19T07:16:18.971Z,50.834747
2023-03-19T07:16:46.487Z,50.834747
2023-03-19T07:17:46.468Z,50.834759
2023-03-19T07:18:46.377Z,50.834763
2023-03-19T07:19:46.367Z,50.834763
2023-03-19T07:20:46.359Z,50.834755
2023-03-19T07:21:46.335Z,50.834751
2023-03-19T07:22:46.369Z,50.834759
2023-03-19T07:23:46.345Z,50.834770
2023-03-19T07:24:46.314Z,50.834763
2023-03-19T07:25:46.303Z,50.834778
2023-03-19T07:26:46.300Z,50.834789
2023-03-19T07:27:46.296Z,50.834797
2023-03-19T07:28:46.293Z,50.834801
2023-03-19T07:29:46.260Z,50.834797
2023-03-19T07:30:46.277Z,50.834797
2023-03-19T07:31:46.370Z,50.834797
2023-03-19T07:32:46.313Z,50.834789
2023-03-19T07:33:46.247Z,50.834782
2023-03-19T07:34:46.254Z,50.834766
2023-03-19T07:35:46.231Z,50.834789
2023-03-19T07:36:46.251Z,50.834774
2023-03-19T07:37:46.210Z,50.834797
2023-03-19T07:38:46.223Z,50.834782
2023-03-19T07:39:46.212Z,50.834801
2023-03-19T07:41:01.046Z,50.834816
2023-03-19T07:41:48.209Z,50.834808
2023-03-19T07:42:46.174Z,50.834827
2023-03-19T07:43:46.209Z,50.834797
2023-03-19T07:44:46.204Z,50.834797
2023-03-19T07:45:46.188Z,50.834805
2023-03-19T07:46:46.140Z,50.834816
2023-03-19T07:47:47.386Z,50.834812
2023-03-19T07:48:46.118Z,50.834789
2023-03-19T07:49:46.115Z,50.834805
2023-03-19T07:50:46.134Z,50.834801
2023-03-19T07:51:46.134Z,50.834785
2023-03-19T07:52:46.105Z,50.834797
2023-03-19T07:53:46.129Z,50.834793
2023-03-19T07:54:46.109Z,50.834816
2023-03-19T07:55:46.107Z,50.834793
2023-03-19T07:56:46.170Z,50.834785
2023-03-19T07:57:46.055Z,50.834782
2023-03-19T07:58:46.101Z,50.834785
2023-03-19T07:59:46.075Z,50.834778
2023-03-19T08:00:46.038Z,50.834774
2023-03-19T08:01:46.048Z,50.834770
2023-03-19T08:02:46.068Z,50.834793
2023-03-19T08:03:46.022Z,50.834808
2023-03-19T08:04:46.013Z,50.834793
2023-03-19T08:05:46.000Z,50.834793
2023-03-19T08:06:46.053Z,50.834778
2023-03-19T08:07:45.999Z,50.834763
2023-03-19T08:08:45.981Z,50.834782
2023-03-19T08:09:45.958Z,50.834778
2023-03-19T08:10:45.989Z,50.834778
2023-03-19T08:11:45.980Z,50.834759
2023-03-19T08:12:46.914Z,50.834770
2023-03-19T08:13:46.004Z,50.834755
2023-03-19T08:14:45.936Z,50.834763
2023-03-19T08:15:45.927Z,50.834766
2023-03-19T08:16:45.949Z,50.834755
2023-03-19T08:17:45.971Z,50.834747
2023-03-19T08:18:45.902Z,50.834747
2023-03-19T08:19:45.881Z,50.834740
2023-03-19T08:20:45.892Z,50.834740
2023-03-19T08:21:45.869Z,50.834751
2023-03-19T08:22:45.892Z,50.834763
2023-03-19T08:23:45.881Z,50.834755
2023-03-19T08:24:45.823Z,50.834766
2023-03-19T08:25:45.824Z,50.834763
2023-03-19T08:26:45.814Z,50.834770
2023-03-19T08:27:45.808Z,50.834778
2023-03-19T08:28:45.841Z,50.834785
2023-03-19T08:29:46.494Z,50.834770
2023-03-19T08:30:45.801Z,50.834763
2023-03-19T08:31:45.775Z,50.834774
2023-03-19T08:32:45.855Z,50.834759
2023-03-19T08:33:45.822Z,50.834774
2023-03-19T08:34:47.629Z,50.834793
2023-03-19T08:35:45.813Z,50.834774
2023-03-19T08:36:45.760Z,50.834778
2023-03-19T08:37:45.730Z,50.834770
2023-03-19T08:38:45.739Z,50.834770
2023-03-19T08:39:45.746Z,50.834766
2023-03-19T08:40:45.727Z,50.834770
2023-03-19T08:41:45.726Z,50.834785
2023-03-19T08:42:45.678Z,50.834766
2023-03-19T08:43:45.689Z,50.834766
2023-03-19T08:44:45.714Z,50.834778
2023-03-19T08:45:45.686Z,50.834763
2023-03-19T08:46:45.704Z,50.834751
2023-03-19T08:47:45.648Z,50.834766
2023-03-19T08:48:45.691Z,50.834766
2023-03-19T08:49:45.642Z,50.834766
2023-03-19T08:50:45.629Z,50.834743
2023-03-19T08:51:45.615Z,50.834759
2023-03-19T08:52:45.602Z,50.834770
2023-03-19T08:53:45.613Z,50.834793
2023-03-19T08:54:45.632Z,50.834789
2023-03-19T08:55:45.677Z,50.834763
2023-03-19T08:56:46.538Z,50.834770
2023-03-19T08:57:45.638Z,50.834759
2023-03-19T08:58:45.583Z,50.834778
2023-03-19T08:59:45.620Z,50.834766
2023-03-19T09:00:45.580Z,50.834778
2023-03-19T09:01:45.588Z,50.834789
2023-03-19T09:02:45.572Z,50.834770
2023-03-19T09:03:45.546Z,50.834747
2023-03-19T09:04:45.590Z,50.834774
2023-03-19T09:05:45.548Z,50.834785
2023-03-19T09:06:45.510Z,50.834805
2023-03-19T09:07:45.505Z,50.834755
2023-03-19T09:08:45.513Z,50.834759
2023-03-19T09:09:45.485Z,50.834782
2023-03-19T09:10:45.496Z,50.834782
2023-03-19T09:11:46.526Z,50.834797
2023-03-19T09:12:47.431Z,50.834778
2023-03-19T09:13:45.475Z,50.834782
2023-03-19T09:14:46.022Z,50.834785
2023-03-19T09:15:45.433Z,50.834751
2023-03-19T09:16:45.460Z,50.834797
2023-03-19T09:17:45.455Z,50.834820
2023-03-19T09:18:45.419Z,50.834812
2023-03-19T09:19:45.412Z,50.834812
2023-03-19T09:20:45.409Z,50.834831
2023-03-19T09:21:45.390Z,50.834835
2023-03-19T09:22:45.394Z,50.834797
2023-03-19T09:23:45.409Z,50.834801
2023-03-19T09:24:45.460Z,50.834824
2023-03-19T09:25:45.351Z,50.834820
2023-03-19T09:26:46.366Z,50.834812
2023-03-19T09:27:45.381Z,50.834835
2023-03-19T09:28:45.318Z,50.834820
2023-03-19T09:29:45.306Z,50.834827
2023-03-19T09:30:45.328Z,50.834831
2023-03-19T09:31:45.341Z,50.834808
2023-03-19T09:32:45.319Z,50.834835
2023-03-19T09:33:45.356Z,50.834843
2023-03-19T09:34:45.280Z,50.834827
2023-03-19T09:35:45.322Z,50.834843
2023-03-19T09:36:45.321Z,50.834827
2023-03-19T09:37:45.266Z,50.834812
2023-03-19T09:38:45.322Z,50.834839
2023-03-19T09:39:45.278Z,50.834835
2023-03-19T09:40:45.257Z,50.834827
2023-03-19T09:41:45.231Z,50.834831
2023-03-19T09:42:45.240Z,50.834816
2023-03-19T09:43:45.268Z,50.834839
2023-03-19T09:44:45.318Z,50.834827
2023-03-19T09:45:45.239Z,50.834816
2023-03-19T09:46:45.289Z,50.834816
2023-03-19T09:47:45.196Z,50.834824
2023-03-19T09:48:45.289Z,50.834827
2023-03-19T09:49:45.210Z,50.834816
2023-03-19T09:50:45.190Z,50.834820
2023-03-19T09:51:45.183Z,50.834812
2023-03-19T09:52:45.274Z,50.834812
2023-03-19T09:53:45.157Z,50.834839
2023-03-19T09:54:45.176Z,50.834835
2023-03-19T09:55:45.187Z,50.834824
2023-03-19T09:56:45.167Z,50.834824
2023-03-19T09:57:45.171Z,50.834831
2023-03-19T09:58:46.098Z,50.834831
2023-03-19T09:59:45.160Z,50.834831
2023-03-19T10:00:45.138Z,50.834850
2023-03-19T10:01:45.137Z,50.834831
2023-03-19T10:02:45.105Z,50.834839
2023-03-19T10:03:45.089Z,50.834839
2023-03-19T10:04:45.105Z,50.834824
2023-03-19T10:05:45.067Z,50.834816
2023-03-19T10:06:45.069Z,50.834805
2023-03-19T10:07:45.024Z,50.834808
2023-03-19T10:08:46.047Z,50.834824
2023-03-19T10:09:45.027Z,50.834820
2023-03-19T10:10:45.071Z,50.834816
2023-03-19T10:11:45.018Z,50.834835
2023-03-19T10:12:45.039Z,50.834824
2023-03-19T10:13:45.014Z,50.834854
2023-03-19T10:14:44.978Z,50.834873
2023-03-19T10:15:44.975Z,50.834835
2023-03-19T10:16:45.014Z,50.834850
2023-03-19T10:17:45.021Z,50.834820
2023-03-19T10:18:45.318Z,50.834843
2023-03-19T10:19:45.187Z,50.834843
2023-03-19T10:20:44.966Z,50.834850
2023-03-19T10:21:45.012Z,50.834854
2023-03-19T10:22:44.981Z,50.834858
2023-03-19T10:23:44.956Z,50.834835
2023-03-19T10:24:44.908Z,50.834824
2023-03-19T10:25:44.915Z,50.834812
2023-03-19T10:26:44.975Z,50.834793
2023-03-19T10:27:44.923Z,50.834835
2023-03-19T10:28:45.067Z,50.834816
2023-03-19T10:29:44.972Z,50.834862
2023-03-19T10:30:44.869Z,50.834846
2023-03-19T10:31:44.978Z,50.834892
2023-03-19T10:32:44.946Z,50.834858
2023-03-19T10:33:44.842Z,50.834900
2023-03-19T10:34:44.843Z,50.834858
2023-03-19T10:35:44.976Z,50.834873
2023-03-19T10:36:44.833Z,50.834881
2023-03-19T10:37:44.820Z,50.834858
2023-03-19T10:38:44.854Z,50.834892
2023-03-19T10:39:44.816Z,50.834858
2023-03-19T10:40:44.831Z,50.834885
2023-03-19T10:41:44.898Z,50.834854
2023-03-19T10:42:44.775Z,50.834835
2023-03-19T10:43:44.766Z,50.834869
2023-03-19T10:44:44.790Z,50.834843
2023-03-19T10:45:44.890Z,50.834888
2023-03-19T10:46:44.755Z,50.834873
2023-03-19T10:47:44.791Z,50.834858
2023-03-19T10:48:44.803Z,50.834885
2023-03-19T10:49:44.724Z,50.834888
2023-03-19T10:50:44.731Z,50.834881
2023-03-19T10:51:44.726Z,50.834846
2023-03-19T10:52:44.755Z,50.834873
2023-03-19T10:53:44.729Z,50.834892
2023-03-19T10:54:44.705Z,50.834866
2023-03-19T10:55:44.641Z,50.834858
2023-03-19T10:56:44.677Z,50.834862
2023-03-19T10:57:44.655Z,50.834827
2023-03-19T10:58:44.715Z,50.834850
2023-03-19T10:59:44.692Z,50.834866
2023-03-19T11:00:44.744Z,50.834854
2023-03-19T11:01:44.617Z,50.834866
2023-03-19T11:02:44.677Z,50.834862
2023-03-19T11:03:44.649Z,50.834854
2023-03-19T11:04:44.602Z,50.834854
2023-03-19T11:05:44.673Z,50.834846
2023-03-19T11:06:44.622Z,50.834843
2023-03-19T11:07:44.621Z,50.834850
2023-03-19T11:08:44.584Z,50.834854
2023-03-19T11:09:44.640Z,50.834843
2023-03-19T11:10:44.579Z,50.834831
2023-03-19T11:11:44.562Z,50.834835
2023-03-19T11:12:44.521Z,50.834820
2023-03-19T11:13:44.657Z,50.834827
2023-03-19T11:14:44.514Z,50.834816
2023-03-19T11:15:44.568Z,50.834831
2023-03-19T11:16:44.569Z,50.834835
2023-03-19T11:17:44.540Z,50.834831
2023-03-19T11:18:45.449Z,50.834843
2023-03-19T11:19:44.508Z,50.834850
2023-03-19T11:20:44.478Z,50.834858
2023-03-19T11:21:44.474Z,50.834850
2023-03-19T11:22:44.458Z,50.834846
2023-03-19T11:23:44.496Z,50.834862
2023-03-19T11:24:44.446Z,50.834862
2023-03-19T11:25:44.511Z,50.834850
2023-03-19T11:26:44.476Z,50.834843
2023-03-19T11:27:44.493Z,50.834846
2023-03-19T11:28:44.414Z,50.834850
2023-03-19T11:29:44.481Z,50.834858
2023-03-19T11:30:44.418Z,50.834858
2023-03-19T11:31:44.487Z,50.834866
2023-03-19T11:32:44.505Z,50.834858
2023-03-19T11:33:44.417Z,50.834854
2023-03-19T11:34:44.355Z,50.834862
2023-03-19T11:35:44.473Z,50.834846
2023-03-19T11:36:44.364Z,50.834843
2023-03-19T11:37:44.377Z,50.834843
2023-03-19T11:38:44.356Z,50.834854
2023-03-19T11:39:44.338Z,50.834846
2023-03-19T11:40:44.347Z,50.834843
2023-03-19T11:41:44.352Z,50.834854
2023-03-19T11:42:44.354Z,50.834843
2023-03-19T11:43:44.335Z,50.834831